sensor_id;sensor_type;location;lat;lon;timestamp;P1;durP1;ratioP1;P2;durP2;ratioP2
9465;SDS011;4771;48.726;9.006;2022-12-16T00:01:56;34.87;;;20.60;;
9465;SDS011;4771;48.726;9.006;2022-12-16T00:04:23;35.50;;;22.37;;
9465;SDS011;4771;48.726;9.006;2022-12-16T00:06:50;33.33;;;21.43;;
9465;SDS011;4771;48.726;9.006;2022-12-16T00:09:18;34.97;;;20.80;;
9465;SDS011;4771;48.726;9.006;2022-12-16T00:11:45;31.83;;;20.37;;
9465;SDS011;4771;48.726;9.006;2022-12-16T00:14:12;33.63;;;21.10;;
9465;SDS011;4771;48.726;9.006;2022-12-16T00:16:39;32.23;;;20.33;;
9465;SDS011;4771;48.726;9.006;2022-12-16T00:19:06;33.43;;;20.33;;
9465;SDS011;4771;48.726;9.006;2022-12-16T00:21:33;33.27;;;20.37;;
9465;SDS011;4771;48.726;9.006;2022-12-16T00:24:00;29.47;;;19.00;;
9465;SDS011;4771;48.726;9.006;2022-12-16T00:26:28;30.20;;;19.40;;
9465;SDS011;4771;48.726;9.006;2022-12-16T00:28:55;30.87;;;19.60;;
9465;SDS011;4771;48.726;9.006;2022-12-16T00:31:23;31.97;;;19.53;;
9465;SDS011;4771;48.726;9.006;2022-12-16T00:33:49;33.10;;;19.93;;
9465;SDS011;4771;48.726;9.006;2022-12-16T00:36:17;35.70;;;20.20;;
9465;SDS011;4771;48.726;9.006;2022-12-16T00:38:43;33.23;;;20.10;;
9465;SDS011;4771;48.726;9.006;2022-12-16T00:41:10;33.60;;;20.43;;
9465;SDS011;4771;48.726;9.006;2022-12-16T00:43:39;30.57;;;20.13;;
9465;SDS011;4771;48.726;9.006;2022-12-16T00:46:06;32.37;;;19.37;;
9465;SDS011;4771;48.726;9.006;2022-12-16T00:48:33;35.33;;;20.67;;
9465;SDS011;4771;48.726;9.006;2022-12-16T00:50:59;36.73;;;20.70;;
9465;SDS011;4771;48.726;9.006;2022-12-16T00:53:26;32.57;;;19.53;;
9465;SDS011;4771;48.726;9.006;2022-12-16T00:56:00;34.30;;;20.77;;
9465;SDS011;4771;48.726;9.006;2022-12-16T00:58:27;33.17;;;20.17;;
9465;SDS011;4771;48.726;9.006;2022-12-16T01:00:55;32.07;;;19.70;;
9465;SDS011;4771;48.726;9.006;2022-12-16T01:03:22;32.07;;;19.77;;
9465;SDS011;4771;48.726;9.006;2022-12-16T01:05:49;33.97;;;20.20;;
9465;SDS011;4771;48.726;9.006;2022-12-16T01:08:16;32.40;;;19.10;;
9465;SDS011;4771;48.726;9.006;2022-12-16T01:10:48;32.50;;;19.77;;
9465;SDS011;4771;48.726;9.006;2022-12-16T01:13:16;30.87;;;19.03;;
9465;SDS011;4771;48.726;9.006;2022-12-16T01:15:42;34.10;;;20.43;;
9465;SDS011;4771;48.726;9.006;2022-12-16T01:18:11;34.87;;;20.13;;
9465;SDS011;4771;48.726;9.006;2022-12-16T01:20:37;33.47;;;20.07;;
9465;SDS011;4771;48.726;9.006;2022-12-16T01:23:04;32.03;;;19.67;;
9465;SDS011;4771;48.726;9.006;2022-12-16T01:25:31;33.23;;;19.73;;
9465;SDS011;4771;48.726;9.006;2022-12-16T01:27:58;33.30;;;20.00;;
9465;SDS011;4771;48.726;9.006;2022-12-16T01:30:25;28.47;;;18.40;;
9465;SDS011;4771;48.726;9.006;2022-12-16T01:32:52;31.80;;;18.87;;
9465;SDS011;4771;48.726;9.006;2022-12-16T01:35:20;34.47;;;19.87;;
9465;SDS011;4771;48.726;9.006;2022-12-16T01:37:47;32.83;;;19.30;;
9465;SDS011;4771;48.726;9.006;2022-12-16T01:40:15;28.77;;;18.13;;
9465;SDS011;4771;48.726;9.006;2022-12-16T01:42:44;31.73;;;19.07;;
9465;SDS011;4771;48.726;9.006;2022-12-16T01:47:58;31.73;;;19.07;;
9465;SDS011;4771;48.726;9.006;2022-12-16T01:50:32;29.53;;;17.80;;
9465;SDS011;4771;48.726;9.006;2022-12-16T01:53:01;31.90;;;19.23;;
9465;SDS011;4771;48.726;9.006;2022-12-16T01:55:31;30.43;;;18.27;;
9465;SDS011;4771;48.726;9.006;2022-12-16T01:58:01;28.87;;;18.17;;
9465;SDS011;4771;48.726;9.006;2022-12-16T02:00:32;30.80;;;19.20;;
9465;SDS011;4771;48.726;9.006;2022-12-16T02:02:59;29.70;;;18.90;;
9465;SDS011;4771;48.726;9.006;2022-12-16T02:05:27;28.50;;;17.97;;
9465;SDS011;4771;48.726;9.006;2022-12-16T02:07:58;31.57;;;19.03;;
9465;SDS011;4771;48.726;9.006;2022-12-16T02:10:29;36.17;;;19.43;;
9465;SDS011;4771;48.726;9.006;2022-12-16T02:13:06;33.27;;;19.03;;
9465;SDS011;4771;48.726;9.006;2022-12-16T02:15:44;29.77;;;18.23;;
9465;SDS011;4771;48.726;9.006;2022-12-16T02:18:21;30.60;;;18.37;;
9465;SDS011;4771;48.726;9.006;2022-12-16T02:21:09;30.67;;;18.93;;
9465;SDS011;4771;48.726;9.006;2022-12-16T02:30:24;28.27;;;17.83;;
9465;SDS011;4771;48.726;9.006;2022-12-16T02:33:23;28.17;;;18.17;;
9465;SDS011;4771;48.726;9.006;2022-12-16T02:36:02;31.03;;;18.20;;
9465;SDS011;4771;48.726;9.006;2022-12-16T02:38:38;32.77;;;18.30;;
9465;SDS011;4771;48.726;9.006;2022-12-16T02:41:15;31.57;;;18.77;;
9465;SDS011;4771;48.726;9.006;2022-12-16T02:43:51;28.30;;;17.73;;
9465;SDS011;4771;48.726;9.006;2022-12-16T02:46:22;26.57;;;16.70;;
9465;SDS011;4771;48.726;9.006;2022-12-16T02:48:52;30.97;;;18.27;;
9465;SDS011;4771;48.726;9.006;2022-12-16T02:51:19;27.83;;;17.60;;
9465;SDS011;4771;48.726;9.006;2022-12-16T02:53:47;29.67;;;18.07;;
9465;SDS011;4771;48.726;9.006;2022-12-16T02:56:19;27.13;;;17.57;;
9465;SDS011;4771;48.726;9.006;2022-12-16T02:58:56;30.33;;;17.60;;
9465;SDS011;4771;48.726;9.006;2022-12-16T03:01:35;26.90;;;16.73;;
9465;SDS011;4771;48.726;9.006;2022-12-16T03:04:11;26.10;;;16.53;;
9465;SDS011;4771;48.726;9.006;2022-12-16T03:06:45;25.40;;;16.73;;
9465;SDS011;4771;48.726;9.006;2022-12-16T03:09:16;27.40;;;16.77;;
9465;SDS011;4771;48.726;9.006;2022-12-16T03:11:47;26.50;;;15.70;;
9465;SDS011;4771;48.726;9.006;2022-12-16T03:14:17;26.63;;;16.53;;
9465;SDS011;4771;48.726;9.006;2022-12-16T03:16:47;28.73;;;17.10;;
9465;SDS011;4771;48.726;9.006;2022-12-16T03:19:15;24.97;;;16.63;;
9465;SDS011;4771;48.726;9.006;2022-12-16T03:21:45;30.33;;;17.97;;
9465;SDS011;4771;48.726;9.006;2022-12-16T03:24:17;29.53;;;16.93;;
9465;SDS011;4771;48.726;9.006;2022-12-16T03:26:46;24.73;;;15.40;;
9465;SDS011;4771;48.726;9.006;2022-12-16T03:29:20;27.27;;;16.87;;
9465;SDS011;4771;48.726;9.006;2022-12-16T03:31:55;23.80;;;16.13;;
9465;SDS011;4771;48.726;9.006;2022-12-16T03:34:27;24.67;;;16.17;;
9465;SDS011;4771;48.726;9.006;2022-12-16T03:37:01;27.63;;;16.87;;
9465;SDS011;4771;48.726;9.006;2022-12-16T03:39:30;29.00;;;16.93;;
9465;SDS011;4771;48.726;9.006;2022-12-16T03:42:00;27.63;;;17.00;;
9465;SDS011;4771;48.726;9.006;2022-12-16T03:44:28;26.03;;;15.83;;
9465;SDS011;4771;48.726;9.006;2022-12-16T03:46:57;21.43;;;15.17;;
9465;SDS011;4771;48.726;9.006;2022-12-16T03:49:24;24.87;;;16.50;;
9465;SDS011;4771;48.726;9.006;2022-12-16T03:51:51;25.90;;;16.63;;
9465;SDS011;4771;48.726;9.006;2022-12-16T03:54:19;27.33;;;15.87;;
9465;SDS011;4771;48.726;9.006;2022-12-16T03:56:47;26.77;;;16.33;;
9465;SDS011;4771;48.726;9.006;2022-12-16T03:59:14;24.80;;;16.30;;
9465;SDS011;4771;48.726;9.006;2022-12-16T04:01:40;26.80;;;16.43;;
9465;SDS011;4771;48.726;9.006;2022-12-16T04:04:09;26.57;;;16.93;;
9465;SDS011;4771;48.726;9.006;2022-12-16T04:06:36;27.67;;;16.03;;
9465;SDS011;4771;48.726;9.006;2022-12-16T04:09:03;23.87;;;14.23;;
9465;SDS011;4771;48.726;9.006;2022-12-16T04:11:30;22.03;;;14.60;;
9465;SDS011;4771;48.726;9.006;2022-12-16T04:14:14;24.87;;;15.80;;
9465;SDS011;4771;48.726;9.006;2022-12-16T04:16:58;24.43;;;14.67;;
9465;SDS011;4771;48.726;9.006;2022-12-16T04:19:44;22.90;;;15.10;;
9465;SDS011;4771;48.726;9.006;2022-12-16T04:22:30;23.57;;;14.33;;
9465;SDS011;4771;48.726;9.006;2022-12-16T04:25:18;24.60;;;14.80;;
9465;SDS011;4771;48.726;9.006;2022-12-16T04:27:47;21.17;;;13.23;;
9465;SDS011;4771;48.726;9.006;2022-12-16T04:30:14;21.27;;;13.43;;
9465;SDS011;4771;48.726;9.006;2022-12-16T04:32:46;20.97;;;13.80;;
9465;SDS011;4771;48.726;9.006;2022-12-16T04:35:34;22.63;;;13.93;;
9465;SDS011;4771;48.726;9.006;2022-12-16T04:38:19;21.07;;;13.30;;
9465;SDS011;4771;48.726;9.006;2022-12-16T04:41:05;23.47;;;14.03;;
9465;SDS011;4771;48.726;9.006;2022-12-16T04:43:49;22.13;;;13.63;;
9465;SDS011;4771;48.726;9.006;2022-12-16T04:46:33;22.17;;;13.90;;
9465;SDS011;4771;48.726;9.006;2022-12-16T04:49:18;21.10;;;13.33;;
9465;SDS011;4771;48.726;9.006;2022-12-16T04:52:11;21.97;;;13.57;;
9465;SDS011;4771;48.726;9.006;2022-12-16T04:54:55;22.17;;;13.70;;
9465;SDS011;4771;48.726;9.006;2022-12-16T04:57:40;23.90;;;13.83;;
9465;SDS011;4771;48.726;9.006;2022-12-16T05:00:26;20.00;;;13.10;;
9465;SDS011;4771;48.726;9.006;2022-12-16T05:03:10;18.13;;;12.57;;
9465;SDS011;4771;48.726;9.006;2022-12-16T05:05:54;20.70;;;13.53;;
9465;SDS011;4771;48.726;9.006;2022-12-16T05:08:40;20.17;;;13.27;;
9465;SDS011;4771;48.726;9.006;2022-12-16T05:11:24;21.57;;;13.33;;
9465;SDS011;4771;48.726;9.006;2022-12-16T05:14:04;21.37;;;12.97;;
9465;SDS011;4771;48.726;9.006;2022-12-16T05:16:49;20.80;;;12.93;;
9465;SDS011;4771;48.726;9.006;2022-12-16T05:19:48;18.43;;;12.27;;
9465;SDS011;4771;48.726;9.006;2022-12-16T05:22:32;20.50;;;12.60;;
9465;SDS011;4771;48.726;9.006;2022-12-16T05:25:18;19.10;;;12.00;;
9465;SDS011;4771;48.726;9.006;2022-12-16T05:28:02;19.57;;;12.40;;
9465;SDS011;4771;48.726;9.006;2022-12-16T05:30:46;19.90;;;12.17;;
9465;SDS011;4771;48.726;9.006;2022-12-16T05:33:36;20.80;;;12.10;;
9465;SDS011;4771;48.726;9.006;2022-12-16T05:36:20;17.77;;;11.57;;
9465;SDS011;4771;48.726;9.006;2022-12-16T05:39:04;22.40;;;13.67;;
9465;SDS011;4771;48.726;9.006;2022-12-16T05:41:50;18.33;;;12.17;;
9465;SDS011;4771;48.726;9.006;2022-12-16T05:44:34;20.10;;;12.87;;
9465;SDS011;4771;48.726;9.006;2022-12-16T05:47:18;30.33;;;18.27;;
9465;SDS011;4771;48.726;9.006;2022-12-16T05:50:03;21.90;;;13.87;;
9465;SDS011;4771;48.726;9.006;2022-12-16T05:52:48;19.13;;;12.20;;
9465;SDS011;4771;48.726;9.006;2022-12-16T05:55:32;18.00;;;11.10;;
9465;SDS011;4771;48.726;9.006;2022-12-16T05:58:18;19.47;;;11.40;;
9465;SDS011;4771;48.726;9.006;2022-12-16T06:01:03;16.13;;;11.70;;
9465;SDS011;4771;48.726;9.006;2022-12-16T06:03:47;18.77;;;11.83;;
9465;SDS011;4771;48.726;9.006;2022-12-16T06:06:31;17.53;;;11.40;;
9465;SDS011;4771;48.726;9.006;2022-12-16T06:09:15;17.63;;;11.57;;
9465;SDS011;4771;48.726;9.006;2022-12-16T06:11:59;20.67;;;11.97;;
9465;SDS011;4771;48.726;9.006;2022-12-16T06:14:45;19.87;;;11.83;;
9465;SDS011;4771;48.726;9.006;2022-12-16T06:17:29;17.33;;;11.57;;
9465;SDS011;4771;48.726;9.006;2022-12-16T06:20:14;18.73;;;12.27;;
9465;SDS011;4771;48.726;9.006;2022-12-16T06:22:58;17.13;;;11.50;;
9465;SDS011;4771;48.726;9.006;2022-12-16T06:25:42;17.53;;;11.80;;
9465;SDS011;4771;48.726;9.006;2022-12-16T06:28:26;18.20;;;12.03;;
9465;SDS011;4771;48.726;9.006;2022-12-16T06:31:12;17.20;;;11.83;;
9465;SDS011;4771;48.726;9.006;2022-12-16T06:33:56;20.10;;;12.03;;
9465;SDS011;4771;48.726;9.006;2022-12-16T06:36:40;22.43;;;12.57;;
9465;SDS011;4771;48.726;9.006;2022-12-16T06:39:25;23.80;;;15.30;;
9465;SDS011;4771;48.726;9.006;2022-12-16T06:42:09;19.07;;;12.50;;
9465;SDS011;4771;48.726;9.006;2022-12-16T06:44:53;21.77;;;13.27;;
9465;SDS011;4771;48.726;9.006;2022-12-16T06:47:41;25.37;;;17.60;;
9465;SDS011;4771;48.726;9.006;2022-12-16T06:50:25;20.13;;;12.00;;
9465;SDS011;4771;48.726;9.006;2022-12-16T06:53:11;18.37;;;11.40;;
9465;SDS011;4771;48.726;9.006;2022-12-16T06:55:55;18.00;;;11.33;;
9465;SDS011;4771;48.726;9.006;2022-12-16T06:58:40;18.77;;;11.27;;
9465;SDS011;4771;48.726;9.006;2022-12-16T07:01:24;17.57;;;10.87;;
9465;SDS011;4771;48.726;9.006;2022-12-16T07:04:10;14.97;;;10.30;;
9465;SDS011;4771;48.726;9.006;2022-12-16T07:06:54;19.03;;;10.70;;
9465;SDS011;4771;48.726;9.006;2022-12-16T07:09:38;19.23;;;11.33;;
9465;SDS011;4771;48.726;9.006;2022-12-16T07:12:22;17.00;;;10.97;;
9465;SDS011;4771;48.726;9.006;2022-12-16T07:15:07;15.63;;;10.40;;
9465;SDS011;4771;48.726;9.006;2022-12-16T07:17:52;18.37;;;11.03;;
9465;SDS011;4771;48.726;9.006;2022-12-16T07:20:37;14.03;;;9.33;;
9465;SDS011;4771;48.726;9.006;2022-12-16T07:23:21;16.57;;;10.70;;
9465;SDS011;4771;48.726;9.006;2022-12-16T07:26:05;18.40;;;11.20;;
9465;SDS011;4771;48.726;9.006;2022-12-16T07:28:52;15.53;;;9.97;;
9465;SDS011;4771;48.726;9.006;2022-12-16T07:31:36;17.07;;;10.33;;
9465;SDS011;4771;48.726;9.006;2022-12-16T07:34:20;17.33;;;10.67;;
9465;SDS011;4771;48.726;9.006;2022-12-16T07:37:06;17.07;;;10.77;;
9465;SDS011;4771;48.726;9.006;2022-12-16T07:39:51;19.23;;;11.07;;
9465;SDS011;4771;48.726;9.006;2022-12-16T07:42:35;15.77;;;10.47;;
9465;SDS011;4771;48.726;9.006;2022-12-16T07:45:19;17.50;;;10.87;;
9465;SDS011;4771;48.726;9.006;2022-12-16T07:48:04;16.33;;;10.37;;
9465;SDS011;4771;48.726;9.006;2022-12-16T07:50:48;17.43;;;10.43;;
9465;SDS011;4771;48.726;9.006;2022-12-16T07:53:34;21.63;;;12.33;;
9465;SDS011;4771;48.726;9.006;2022-12-16T07:56:20;14.13;;;10.10;;
9465;SDS011;4771;48.726;9.006;2022-12-16T07:59:05;16.20;;;10.33;;
9465;SDS011;4771;48.726;9.006;2022-12-16T08:01:49;15.97;;;10.80;;
9465;SDS011;4771;48.726;9.006;2022-12-16T08:04:33;16.37;;;10.57;;
9465;SDS011;4771;48.726;9.006;2022-12-16T08:07:17;16.97;;;10.17;;
9465;SDS011;4771;48.726;9.006;2022-12-16T08:10:02;15.27;;;10.27;;
9465;SDS011;4771;48.726;9.006;2022-12-16T08:12:47;16.27;;;9.93;;
9465;SDS011;4771;48.726;9.006;2022-12-16T08:15:31;15.27;;;9.93;;
9465;SDS011;4771;48.726;9.006;2022-12-16T08:18:15;14.13;;;9.80;;
9465;SDS011;4771;48.726;9.006;2022-12-16T08:20:59;15.93;;;10.30;;
9465;SDS011;4771;48.726;9.006;2022-12-16T08:23:44;15.67;;;10.43;;
9465;SDS011;4771;48.726;9.006;2022-12-16T08:26:29;19.13;;;10.73;;
9465;SDS011;4771;48.726;9.006;2022-12-16T08:29:14;16.50;;;10.73;;
9465;SDS011;4771;48.726;9.006;2022-12-16T08:31:58;15.63;;;10.47;;
9465;SDS011;4771;48.726;9.006;2022-12-16T08:34:42;16.43;;;10.03;;
9465;SDS011;4771;48.726;9.006;2022-12-16T08:37:26;16.43;;;10.00;;
9465;SDS011;4771;48.726;9.006;2022-12-16T08:40:10;16.70;;;10.30;;
9465;SDS011;4771;48.726;9.006;2022-12-16T08:42:56;15.23;;;10.20;;
9465;SDS011;4771;48.726;9.006;2022-12-16T08:45:41;16.20;;;10.60;;
9465;SDS011;4771;48.726;9.006;2022-12-16T08:48:30;14.67;;;9.27;;
9465;SDS011;4771;48.726;9.006;2022-12-16T08:51:15;15.13;;;9.93;;
9465;SDS011;4771;48.726;9.006;2022-12-16T08:53:59;14.73;;;9.63;;
9465;SDS011;4771;48.726;9.006;2022-12-16T08:56:43;14.43;;;10.03;;
9465;SDS011;4771;48.726;9.006;2022-12-16T08:59:29;14.67;;;9.97;;
9465;SDS011;4771;48.726;9.006;2022-12-16T09:02:13;16.80;;;10.80;;
9465;SDS011;4771;48.726;9.006;2022-12-16T09:04:58;16.97;;;10.10;;
9465;SDS011;4771;48.726;9.006;2022-12-16T09:07:42;16.20;;;8.77;;
9465;SDS011;4771;48.726;9.006;2022-12-16T09:10:27;14.10;;;8.73;;
9465;SDS011;4771;48.726;9.006;2022-12-16T09:13:11;13.57;;;9.20;;
9465;SDS011;4771;48.726;9.006;2022-12-16T09:15:58;12.60;;;8.67;;
9465;SDS011;4771;48.726;9.006;2022-12-16T09:18:42;12.83;;;8.43;;
9465;SDS011;4771;48.726;9.006;2022-12-16T09:21:27;14.37;;;9.40;;
9465;SDS011;4771;48.726;9.006;2022-12-16T09:24:11;12.93;;;8.93;;
9465;SDS011;4771;48.726;9.006;2022-12-16T09:26:55;13.27;;;8.73;;
9465;SDS011;4771;48.726;9.006;2022-12-16T09:29:40;11.80;;;7.97;;
9465;SDS011;4771;48.726;9.006;2022-12-16T09:32:25;13.57;;;9.50;;
9465;SDS011;4771;48.726;9.006;2022-12-16T09:35:10;11.77;;;7.87;;
9465;SDS011;4771;48.726;9.006;2022-12-16T09:37:55;12.43;;;8.07;;
9465;SDS011;4771;48.726;9.006;2022-12-16T09:40:39;14.03;;;7.10;;
9465;SDS011;4771;48.726;9.006;2022-12-16T09:43:30;12.17;;;7.60;;
9465;SDS011;4771;48.726;9.006;2022-12-16T09:46:28;11.87;;;7.37;;
9465;SDS011;4771;48.726;9.006;2022-12-16T09:49:21;11.90;;;7.83;;
9465;SDS011;4771;48.726;9.006;2022-12-16T09:52:16;10.77;;;7.83;;
9465;SDS011;4771;48.726;9.006;2022-12-16T09:55:03;13.83;;;7.67;;
9465;SDS011;4771;48.726;9.006;2022-12-16T09:57:55;11.43;;;7.53;;
9465;SDS011;4771;48.726;9.006;2022-12-16T10:00:41;12.20;;;7.60;;
9465;SDS011;4771;48.726;9.006;2022-12-16T10:03:26;10.60;;;7.43;;
9465;SDS011;4771;48.726;9.006;2022-12-16T10:06:20;11.47;;;7.03;;
9465;SDS011;4771;48.726;9.006;2022-12-16T10:09:16;10.87;;;7.23;;
9465;SDS011;4771;48.726;9.006;2022-12-16T10:12:07;11.83;;;7.50;;
9465;SDS011;4771;48.726;9.006;2022-12-16T10:14:59;14.50;;;7.80;;
9465;SDS011;4771;48.726;9.006;2022-12-16T10:17:50;14.07;;;7.60;;
9465;SDS011;4771;48.726;9.006;2022-12-16T10:20:38;11.57;;;7.60;;
9465;SDS011;4771;48.726;9.006;2022-12-16T10:23:27;11.47;;;7.27;;
9465;SDS011;4771;48.726;9.006;2022-12-16T10:26:19;11.23;;;7.23;;
9465;SDS011;4771;48.726;9.006;2022-12-16T10:29:11;10.93;;;6.60;;
9465;SDS011;4771;48.726;9.006;2022-12-16T10:32:01;10.60;;;7.20;;
9465;SDS011;4771;48.726;9.006;2022-12-16T10:35:04;10.77;;;7.27;;
9465;SDS011;4771;48.726;9.006;2022-12-16T10:38:01;13.00;;;8.00;;
9465;SDS011;4771;48.726;9.006;2022-12-16T10:40:51;10.70;;;7.77;;
9465;SDS011;4771;48.726;9.006;2022-12-16T10:43:36;10.27;;;6.80;;
9465;SDS011;4771;48.726;9.006;2022-12-16T10:46:27;9.93;;;7.40;;
9465;SDS011;4771;48.726;9.006;2022-12-16T10:49:15;13.13;;;7.73;;
9465;SDS011;4771;48.726;9.006;2022-12-16T10:51:59;11.27;;;7.43;;
9465;SDS011;4771;48.726;9.006;2022-12-16T10:54:41;14.17;;;7.47;;
9465;SDS011;4771;48.726;9.006;2022-12-16T10:57:35;11.70;;;7.97;;
9465;SDS011;4771;48.726;9.006;2022-12-16T11:00:37;12.93;;;7.30;;
9465;SDS011;4771;48.726;9.006;2022-12-16T11:03:23;10.27;;;6.77;;
9465;SDS011;4771;48.726;9.006;2022-12-16T11:06:10;8.80;;;6.43;;
9465;SDS011;4771;48.726;9.006;2022-12-16T11:09:07;11.40;;;7.80;;
9465;SDS011;4771;48.726;9.006;2022-12-16T11:12:08;10.03;;;6.90;;
9465;SDS011;4771;48.726;9.006;2022-12-16T11:15:17;11.17;;;6.93;;
9465;SDS011;4771;48.726;9.006;2022-12-16T11:18:11;10.30;;;7.00;;
9465;SDS011;4771;48.726;9.006;2022-12-16T11:21:03;11.50;;;7.17;;
9465;SDS011;4771;48.726;9.006;2022-12-16T11:24:04;9.70;;;6.23;;
9465;SDS011;4771;48.726;9.006;2022-12-16T11:26:54;11.20;;;6.93;;
9465;SDS011;4771;48.726;9.006;2022-12-16T11:29:50;11.07;;;7.33;;
9465;SDS011;4771;48.726;9.006;2022-12-16T11:32:37;10.50;;;6.63;;
9465;SDS011;4771;48.726;9.006;2022-12-16T11:35:24;14.53;;;6.90;;
9465;SDS011;4771;48.726;9.006;2022-12-16T11:38:11;11.07;;;6.40;;
9465;SDS011;4771;48.726;9.006;2022-12-16T11:41:03;9.57;;;6.93;;
9465;SDS011;4771;48.726;9.006;2022-12-16T11:43:49;11.57;;;7.17;;
9465;SDS011;4771;48.726;9.006;2022-12-16T11:46:37;9.77;;;6.20;;
9465;SDS011;4771;48.726;9.006;2022-12-16T11:49:23;9.03;;;6.07;;
9465;SDS011;4771;48.726;9.006;2022-12-16T11:52:14;7.73;;;5.63;;
9465;SDS011;4771;48.726;9.006;2022-12-16T11:55:01;8.53;;;6.17;;
9465;SDS011;4771;48.726;9.006;2022-12-16T11:57:56;7.50;;;5.07;;
9465;SDS011;4771;48.726;9.006;2022-12-16T12:00:49;8.67;;;5.97;;
9465;SDS011;4771;48.726;9.006;2022-12-16T12:03:42;105.17;;;49.80;;
9465;SDS011;4771;48.726;9.006;2022-12-16T12:06:30;10.13;;;6.50;;
9465;SDS011;4771;48.726;9.006;2022-12-16T12:09:20;10.73;;;5.57;;
9465;SDS011;4771;48.726;9.006;2022-12-16T12:12:08;8.00;;;5.43;;
9465;SDS011;4771;48.726;9.006;2022-12-16T12:15:01;10.70;;;6.13;;
9465;SDS011;4771;48.726;9.006;2022-12-16T12:17:52;8.60;;;6.40;;
9465;SDS011;4771;48.726;9.006;2022-12-16T12:20:44;7.70;;;5.90;;
9465;SDS011;4771;48.726;9.006;2022-12-16T12:23:37;14.30;;;6.07;;
9465;SDS011;4771;48.726;9.006;2022-12-16T12:26:29;9.13;;;6.23;;
9465;SDS011;4771;48.726;9.006;2022-12-16T12:29:31;11.37;;;6.40;;
9465;SDS011;4771;48.726;9.006;2022-12-16T12:32:23;10.87;;;6.77;;
9465;SDS011;4771;48.726;9.006;2022-12-16T12:35:17;11.40;;;7.50;;
9465;SDS011;4771;48.726;9.006;2022-12-16T12:38:12;18.87;;;9.97;;
9465;SDS011;4771;48.726;9.006;2022-12-16T12:41:04;15.30;;;9.00;;
9465;SDS011;4771;48.726;9.006;2022-12-16T12:43:55;147.60;;;52.13;;
9465;SDS011;4771;48.726;9.006;2022-12-16T12:46:48;35.47;;;16.83;;
9465;SDS011;4771;48.726;9.006;2022-12-16T12:49:38;14.13;;;8.50;;
9465;SDS011;4771;48.726;9.006;2022-12-16T12:52:32;13.67;;;8.57;;
9465;SDS011;4771;48.726;9.006;2022-12-16T12:55:31;12.17;;;7.50;;
9465;SDS011;4771;48.726;9.006;2022-12-16T12:58:26;13.63;;;7.70;;
9465;SDS011;4771;48.726;9.006;2022-12-16T13:01:15;10.80;;;7.27;;
9465;SDS011;4771;48.726;9.006;2022-12-16T13:04:05;11.10;;;7.20;;
9465;SDS011;4771;48.726;9.006;2022-12-16T13:06:55;11.70;;;7.40;;
9465;SDS011;4771;48.726;9.006;2022-12-16T13:09:41;12.03;;;7.60;;
9465;SDS011;4771;48.726;9.006;2022-12-16T13:12:29;13.73;;;8.00;;
9465;SDS011;4771;48.726;9.006;2022-12-16T13:15:20;9.80;;;7.33;;
9465;SDS011;4771;48.726;9.006;2022-12-16T13:18:21;27.90;;;14.37;;
9465;SDS011;4771;48.726;9.006;2022-12-16T13:24:37;40.27;;;19.97;;
9465;SDS011;4771;48.726;9.006;2022-12-16T13:27:25;14.00;;;8.80;;
9465;SDS011;4771;48.726;9.006;2022-12-16T13:30:23;32.67;;;16.10;;
9465;SDS011;4771;48.726;9.006;2022-12-16T13:33:19;20.87;;;11.03;;
9465;SDS011;4771;48.726;9.006;2022-12-16T13:36:09;27.70;;;15.23;;
9465;SDS011;4771;48.726;9.006;2022-12-16T13:38:56;24.10;;;12.90;;
9465;SDS011;4771;48.726;9.006;2022-12-16T13:42:00;16.27;;;9.33;;
9465;SDS011;4771;48.726;9.006;2022-12-16T13:44:57;13.90;;;8.47;;
9465;SDS011;4771;48.726;9.006;2022-12-16T13:47:59;10.57;;;7.13;;
9465;SDS011;4771;48.726;9.006;2022-12-16T13:50:46;11.53;;;7.17;;
9465;SDS011;4771;48.726;9.006;2022-12-16T13:53:32;16.97;;;11.23;;
9465;SDS011;4771;48.726;9.006;2022-12-16T13:56:22;10.00;;;6.73;;
9465;SDS011;4771;48.726;9.006;2022-12-16T13:59:16;11.53;;;7.13;;
9465;SDS011;4771;48.726;9.006;2022-12-16T14:02:11;9.23;;;6.33;;
9465;SDS011;4771;48.726;9.006;2022-12-16T14:05:01;10.63;;;8.00;;
9465;SDS011;4771;48.726;9.006;2022-12-16T14:07:46;8.10;;;5.93;;
9465;SDS011;4771;48.726;9.006;2022-12-16T14:10:32;9.17;;;5.77;;
9465;SDS011;4771;48.726;9.006;2022-12-16T14:13:20;9.33;;;7.03;;
9465;SDS011;4771;48.726;9.006;2022-12-16T14:16:12;10.17;;;6.33;;
9465;SDS011;4771;48.726;9.006;2022-12-16T14:19:04;10.80;;;7.17;;
9465;SDS011;4771;48.726;9.006;2022-12-16T14:22:03;8.93;;;6.30;;
9465;SDS011;4771;48.726;9.006;2022-12-16T14:25:04;7.93;;;6.20;;
9465;SDS011;4771;48.726;9.006;2022-12-16T14:27:50;9.50;;;6.23;;
9465;SDS011;4771;48.726;9.006;2022-12-16T14:30:35;9.23;;;6.77;;
9465;SDS011;4771;48.726;9.006;2022-12-16T14:33:22;8.37;;;6.20;;
9465;SDS011;4771;48.726;9.006;2022-12-16T14:36:17;9.80;;;6.33;;
9465;SDS011;4771;48.726;9.006;2022-12-16T14:39:08;8.93;;;6.20;;
9465;SDS011;4771;48.726;9.006;2022-12-16T14:41:53;11.50;;;6.40;;
9465;SDS011;4771;48.726;9.006;2022-12-16T14:44:37;11.27;;;6.90;;
9465;SDS011;4771;48.726;9.006;2022-12-16T14:47:23;9.70;;;6.53;;
9465;SDS011;4771;48.726;9.006;2022-12-16T14:50:17;14.43;;;9.50;;
9465;SDS011;4771;48.726;9.006;2022-12-16T14:53:12;9.70;;;7.13;;
9465;SDS011;4771;48.726;9.006;2022-12-16T14:59:13;11.80;;;7.77;;
9465;SDS011;4771;48.726;9.006;2022-12-16T15:01:59;19.03;;;10.20;;
9465;SDS011;4771;48.726;9.006;2022-12-16T15:04:56;13.93;;;8.47;;
9465;SDS011;4771;48.726;9.006;2022-12-16T15:07:40;10.20;;;6.13;;
9465;SDS011;4771;48.726;9.006;2022-12-16T15:10:25;14.87;;;9.13;;
9465;SDS011;4771;48.726;9.006;2022-12-16T15:13:13;8.60;;;6.37;;
9465;SDS011;4771;48.726;9.006;2022-12-16T15:16:00;12.03;;;7.63;;
9465;SDS011;4771;48.726;9.006;2022-12-16T15:18:45;11.37;;;7.47;;
9465;SDS011;4771;48.726;9.006;2022-12-16T15:21:32;26.37;;;16.77;;
9465;SDS011;4771;48.726;9.006;2022-12-16T15:24:17;10.47;;;7.67;;
9465;SDS011;4771;48.726;9.006;2022-12-16T15:27:12;8.27;;;6.37;;
9465;SDS011;4771;48.726;9.006;2022-12-16T15:33:23;11.83;;;6.60;;
9465;SDS011;4771;48.726;9.006;2022-12-16T15:36:23;7.30;;;5.43;;
9465;SDS011;4771;48.726;9.006;2022-12-16T15:39:10;10.90;;;6.87;;
9465;SDS011;4771;48.726;9.006;2022-12-16T15:42:05;20.87;;;11.57;;
9465;SDS011;4771;48.726;9.006;2022-12-16T15:45:02;13.47;;;8.00;;
9465;SDS011;4771;48.726;9.006;2022-12-16T15:47:49;17.97;;;10.23;;
9465;SDS011;4771;48.726;9.006;2022-12-16T15:50:34;14.17;;;8.10;;
9465;SDS011;4771;48.726;9.006;2022-12-16T15:53:28;12.63;;;7.70;;
9465;SDS011;4771;48.726;9.006;2022-12-16T15:56:23;11.93;;;8.00;;
9465;SDS011;4771;48.726;9.006;2022-12-16T15:59:12;11.50;;;6.30;;
9465;SDS011;4771;48.726;9.006;2022-12-16T16:02:03;10.20;;;6.90;;
9465;SDS011;4771;48.726;9.006;2022-12-16T16:04:51;11.87;;;7.20;;
9465;SDS011;4771;48.726;9.006;2022-12-16T16:07:36;10.97;;;8.07;;
9465;SDS011;4771;48.726;9.006;2022-12-16T16:10:21;11.80;;;8.13;;
9465;SDS011;4771;48.726;9.006;2022-12-16T16:13:07;8.83;;;6.67;;
9465;SDS011;4771;48.726;9.006;2022-12-16T16:15:52;10.13;;;6.23;;
9465;SDS011;4771;48.726;9.006;2022-12-16T16:18:37;11.67;;;6.90;;
9465;SDS011;4771;48.726;9.006;2022-12-16T16:21:24;11.73;;;7.27;;
9465;SDS011;4771;48.726;9.006;2022-12-16T16:24:09;12.70;;;6.60;;
9465;SDS011;4771;48.726;9.006;2022-12-16T16:26:53;10.07;;;7.03;;
9465;SDS011;4771;48.726;9.006;2022-12-16T16:29:38;10.53;;;6.93;;
9465;SDS011;4771;48.726;9.006;2022-12-16T16:32:23;11.80;;;7.30;;
9465;SDS011;4771;48.726;9.006;2022-12-16T16:35:07;12.93;;;9.07;;
9465;SDS011;4771;48.726;9.006;2022-12-16T16:37:52;11.07;;;7.07;;
9465;SDS011;4771;48.726;9.006;2022-12-16T16:40:37;11.57;;;7.67;;
9465;SDS011;4771;48.726;9.006;2022-12-16T16:43:23;10.27;;;6.80;;
9465;SDS011;4771;48.726;9.006;2022-12-16T16:46:13;10.47;;;7.07;;
9465;SDS011;4771;48.726;9.006;2022-12-16T16:49:17;9.33;;;6.87;;
9465;SDS011;4771;48.726;9.006;2022-12-16T16:52:03;12.60;;;7.67;;